createdAt,value
2018-02-19T00:00:34.347Z,1014.37
2018-02-19T00:01:34.293Z,1014.41
2018-02-19T00:02:34.257Z,1014.43
2018-02-19T00:03:34.221Z,1014.36
2018-02-19T00:04:34.166Z,1014.37
2018-02-19T00:05:34.153Z,1014.37
2018-02-19T00:06:34.095Z,1014.36
2018-02-19T00:07:34.043Z,1014.30
2018-02-19T00:08:34.017Z,1014.37
2018-02-19T00:09:33.972Z,1014.36
2018-02-19T00:10:33.919Z,1014.36
2018-02-19T00:11:33.900Z,1014.29
2018-02-19T00:12:33.832Z,1014.25
2018-02-19T00:13:33.792Z,1014.27
2018-02-19T00:14:33.789Z,1014.23
2018-02-19T00:15:33.705Z,1014.21
2018-02-19T00:16:33.662Z,1014.12
2018-02-19T00:17:33.631Z,1014.22
2018-02-19T00:18:33.578Z,1014.06
2018-02-19T00:19:33.539Z,1014.19
2018-02-19T00:20:33.529Z,1014.18
2018-02-19T00:21:33.449Z,1014.17
2018-02-19T00:22:33.448Z,1014.15
2018-02-19T00:23:33.368Z,1014.14
2018-02-19T00:24:33.325Z,1014.13
2018-02-19T00:25:33.281Z,1014.08
2018-02-19T00:26:33.242Z,1014.21
2018-02-19T00:27:33.198Z,1014.14
2018-02-19T00:28:33.170Z,1014.16
2018-02-19T00:29:33.111Z,1014.14
2018-02-19T00:30:33.073Z,1014.09
2018-02-19T00:31:33.041Z,1014.11
2018-02-19T00:32:32.985Z,1014.07
2018-02-19T00:33:32.953Z,1014.04
2018-02-19T00:34:32.909Z,1014.09
2018-02-19T00:35:32.858Z,1014.05
2018-02-19T00:36:32.825Z,1014.04
2018-02-19T00:37:32.777Z,1014.05
2018-02-19T00:38:32.739Z,1014.10
2018-02-19T00:39:32.694Z,1014.05
2018-02-19T00:40:32.684Z,1014.13
2018-02-19T00:41:32.607Z,1014.09
2018-02-19T00:42:32.578Z,1014.12
2018-02-19T00:43:32.535Z,1014.04
2018-02-19T00:44:32.482Z,1014.04
2018-02-19T00:45:32.438Z,1014.04
2018-02-19T00:46:32.407Z,1014.05
2018-02-19T00:47:32.357Z,1014.05
2018-02-19T00:48:32.309Z,1014.11
2018-02-19T00:49:32.270Z,1014.07
2018-02-19T00:50:32.236Z,1013.96
2018-02-19T00:51:32.183Z,1014.04
2018-02-19T00:52:32.159Z,1014.07
2018-02-19T00:53:32.104Z,1013.99
2018-02-19T00:54:32.056Z,1013.95
2018-02-19T00:55:32.017Z,1014.00
2018-02-19T00:56:31.979Z,1013.95
2018-02-19T00:57:31.932Z,1013.94
2018-02-19T00:58:31.887Z,1013.86
2018-02-19T00:59:31.888Z,1013.91
2018-02-19T01:00:31.828Z,1013.86
2018-02-19T01:01:31.764Z,1013.86
2018-02-19T01:02:31.720Z,1013.82
2018-02-19T01:03:31.675Z,1013.84
2018-02-19T01:04:31.676Z,1013.80
2018-02-19T01:05:31.591Z,1013.80
2018-02-19T01:06:31.550Z,1013.82
2018-02-19T01:07:31.508Z,1013.80
2018-02-19T01:08:31.464Z,1013.73
2018-02-19T01:09:31.436Z,1013.79
2018-02-19T01:10:31.381Z,1013.74
2018-02-19T01:11:31.342Z,1013.78
2018-02-19T01:12:31.294Z,1013.68
2018-02-19T01:13:31.265Z,1013.75
2018-02-19T01:14:31.212Z,1013.78
2018-02-19T01:15:31.170Z,1013.80
2018-02-19T01:16:31.125Z,1013.81
2018-02-19T01:17:31.081Z,1013.82
2018-02-19T01:18:31.047Z,1013.80
2018-02-19T01:19:31.008Z,1013.71
2018-02-19T01:20:30.956Z,1013.85
2018-02-19T01:21:30.924Z,1013.80
2018-02-19T01:22:30.882Z,1013.85
2018-02-19T01:23:30.831Z,1013.83
2018-02-19T01:24:30.789Z,1013.79
2018-02-19T01:25:30.745Z,1013.79
2018-02-19T01:26:30.703Z,1013.82
2018-02-19T01:27:30.663Z,1013.79
2018-02-19T01:28:30.626Z,1013.75
2018-02-19T01:29:30.573Z,1013.74
2018-02-19T01:30:30.534Z,1013.70
2018-02-19T01:31:30.532Z,1013.65
2018-02-19T01:32:30.447Z,1013.69
2018-02-19T01:33:30.418Z,1013.61
2018-02-19T01:34:30.386Z,1013.64
2018-02-19T01:35:30.325Z,1013.56
2018-02-19T01:36:30.304Z,1013.64
2018-02-19T01:37:30.239Z,1013.60
2018-02-19T01:38:30.201Z,1013.59
2018-02-19T01:39:30.155Z,1013.49
2018-02-19T01:40:30.115Z,1013.56
2018-02-19T01:41:30.065Z,1013.60
2018-02-19T01:42:30.026Z,1013.52
2018-02-19T01:43:29.994Z,1013.53
2018-02-19T01:44:29.937Z,1013.53
2018-02-19T01:45:29.895Z,1013.44
2018-02-19T01:46:29.859Z,1013.49
2018-02-19T01:47:29.811Z,1013.49
2018-02-19T01:48:29.777Z,1013.43
2018-02-19T01:49:29.732Z,1013.41
2018-02-19T01:50:29.692Z,1013.42
2018-02-19T01:51:29.643Z,1013.33
2018-02-19T01:52:29.600Z,1013.33
2018-02-19T01:53:29.560Z,1013.30
2018-02-19T01:54:29.515Z,1013.28
2018-02-19T01:55:29.485Z,1013.31
2018-02-19T01:56:29.719Z,1013.31
2018-02-19T01:57:29.387Z,1013.29
2018-02-19T01:58:29.347Z,1013.27
2018-02-19T01:59:29.301Z,1013.28
2018-02-19T02:00:29.259Z,1013.22
2018-02-19T02:01:29.223Z,1013.19
2018-02-19T02:02:29.180Z,1013.18
2018-02-19T02:03:29.133Z,1013.25
2018-02-19T02:04:29.133Z,1013.21
2018-02-19T02:05:29.046Z,1013.13
2018-02-19T02:06:29.016Z,1013.14
2018-02-19T02:07:28.971Z,1013.13
2018-02-19T02:08:28.919Z,1013.15
2018-02-19T02:09:28.877Z,1013.04
2018-02-19T02:10:28.850Z,1013.18
2018-02-19T02:11:28.791Z,1013.09
2018-02-19T02:12:28.749Z,1013.04
2018-02-19T02:13:28.717Z,1013.08
2018-02-19T02:14:28.670Z,1013.02
2018-02-19T02:15:28.630Z,1013.04
2018-02-19T02:16:28.580Z,1013.07
2018-02-19T02:17:28.542Z,1012.93
2018-02-19T02:18:28.500Z,1012.97
2018-02-19T02:19:28.455Z,1012.97
2018-02-19T02:20:28.410Z,1012.93
2018-02-19T02:21:28.384Z,1012.94
2018-02-19T02:22:28.360Z,1012.98
2018-02-19T02:23:28.282Z,1012.92
2018-02-19T02:24:28.242Z,1012.92
2018-02-19T02:25:28.199Z,1012.95
2018-02-19T02:26:28.164Z,1012.96
2018-02-19T02:27:28.150Z,1012.94
2018-02-19T02:28:28.846Z,1013.00
2018-02-19T02:29:28.028Z,1012.94
2018-02-19T02:30:27.988Z,1012.93
2018-02-19T02:31:27.945Z,1012.94
2018-02-19T02:32:27.903Z,1012.91
2018-02-19T02:33:27.867Z,1012.89
2018-02-19T02:34:27.818Z,1012.90
2018-02-19T02:35:27.774Z,1012.89
2018-02-19T02:36:27.729Z,1012.92
2018-02-19T02:37:27.729Z,1012.89
2018-02-19T02:38:27.650Z,1012.88
2018-02-19T02:39:27.608Z,1012.84
2018-02-19T02:40:27.560Z,1012.87
2018-02-19T02:41:27.519Z,1012.87
2018-02-19T02:42:27.478Z,1012.76
2018-02-19T02:43:27.438Z,1012.82
2018-02-19T02:44:27.477Z,1012.78
2018-02-19T02:45:27.350Z,1012.72
2018-02-19T02:46:27.306Z,1012.79
2018-02-19T02:47:27.263Z,1012.74
2018-02-19T02:48:27.233Z,1012.76
2018-02-19T02:49:27.184Z,1012.71
2018-02-19T02:50:27.136Z,1012.74
2018-02-19T02:51:27.099Z,1012.74
2018-02-19T02:52:27.057Z,1012.72
2018-02-19T02:53:27.010Z,1012.75
2018-02-19T02:54:26.972Z,1012.70
2018-02-19T02:55:26.926Z,1012.71
2018-02-19T02:56:26.901Z,1012.71
2018-02-19T02:57:26.839Z,1012.74
2018-02-19T02:58:26.831Z,1012.71
2018-02-19T02:59:26.759Z,1012.72
2018-02-19T03:00:26.713Z,1012.75
2018-02-19T03:01:26.698Z,1012.70
2018-02-19T03:02:26.659Z,1012.73
2018-02-19T03:03:26.585Z,1012.68
2018-02-19T03:04:26.546Z,1012.70
2018-02-19T03:05:26.502Z,1012.67
2018-02-19T03:06:26.461Z,1012.71
2018-02-19T03:07:26.417Z,1012.69
2018-02-19T03:08:26.391Z,1012.72
2018-02-19T03:09:26.339Z,1012.70
2018-02-19T03:10:26.293Z,1012.76
2018-02-19T03:11:26.244Z,1012.74
2018-02-19T03:12:26.206Z,1012.67
2018-02-19T03:13:26.160Z,1012.76
2018-02-19T03:14:26.122Z,1012.72
2018-02-19T03:15:26.077Z,1012.78
2018-02-19T03:16:26.042Z,1012.76
2018-02-19T03:17:25.992Z,1012.77
2018-02-19T03:18:25.950Z,1012.74
2018-02-19T03:19:25.906Z,1012.78
2018-02-19T03:20:25.865Z,1012.71
2018-02-19T03:21:25.831Z,1012.76
2018-02-19T03:22:25.789Z,1012.73
2018-02-19T03:23:25.736Z,1012.76
2018-02-19T03:24:25.702Z,1012.72
2018-02-19T03:25:25.651Z,1012.81
2018-02-19T03:26:25.612Z,1012.79
2018-02-19T03:27:25.568Z,1012.78
2018-02-19T03:28:25.531Z,1012.70
2018-02-19T03:29:25.486Z,1012.77
2018-02-19T03:30:25.464Z,1012.74
2018-02-19T03:31:25.399Z,1012.71
2018-02-19T03:32:25.355Z,1012.79
2018-02-19T03:33:25.318Z,1012.73
2018-02-19T03:34:25.281Z,1012.75
2018-02-19T03:35:25.236Z,1012.71
2018-02-19T03:36:25.186Z,1012.76
2018-02-19T03:37:25.159Z,1012.73
2018-02-19T03:38:25.104Z,1012.55
2018-02-19T03:39:25.063Z,1012.74
2018-02-19T03:40:25.016Z,1012.65
2018-02-19T03:41:24.979Z,1012.73
2018-02-19T03:42:24.944Z,1012.65
2018-02-19T03:43:24.899Z,1012.73
2018-02-19T03:44:24.850Z,1012.70
2018-02-19T03:45:24.814Z,1012.73
2018-02-19T03:46:24.768Z,1012.72
2018-02-19T03:47:24.724Z,1012.71
2018-02-19T03:48:24.680Z,1012.55
2018-02-19T03:49:24.637Z,1012.68
2018-02-19T03:50:24.594Z,1012.62
2018-02-19T03:51:24.554Z,1012.69
2018-02-19T03:52:24.511Z,1012.68
2018-02-19T03:53:24.479Z,1012.68
2018-02-19T03:54:24.428Z,1012.69
2018-02-19T03:55:24.388Z,1012.65
2018-02-19T03:56:24.346Z,1012.72
2018-02-19T03:57:24.305Z,1012.69
2018-02-19T03:58:24.267Z,1012.64
2018-02-19T03:59:24.219Z,1012.71
2018-02-19T04:00:24.180Z,1012.74
2018-02-19T04:01:24.140Z,1012.76
2018-02-19T04:02:24.090Z,1012.78
2018-02-19T04:03:24.053Z,1012.80
2018-02-19T04:04:24.003Z,1012.71
2018-02-19T04:05:23.962Z,1012.70
2018-02-19T04:06:23.930Z,1012.71
2018-02-19T04:07:23.882Z,1012.71
2018-02-19T04:08:23.907Z,1012.74
2018-02-19T04:09:23.814Z,1012.58
2018-02-19T04:10:23.802Z,1012.67
2018-02-19T04:11:23.709Z,1012.69
2018-02-19T04:12:23.683Z,1012.62
2018-02-19T04:13:23.640Z,1012.63
2018-02-19T04:14:23.584Z,1012.64
2018-02-19T04:15:23.552Z,1012.67
2018-02-19T04:16:23.499Z,1012.59
2018-02-19T04:17:23.460Z,1012.63
2018-02-19T04:18:23.419Z,1012.55
2018-02-19T04:19:23.394Z,1012.53
2018-02-19T04:20:23.332Z,1012.52
2018-02-19T04:21:23.289Z,1012.49
2018-02-19T04:22:23.245Z,1012.52
2018-02-19T04:23:23.208Z,1012.48
2018-02-19T04:24:23.169Z,1012.53
2018-02-19T04:25:23.129Z,1012.41
2018-02-19T04:26:23.087Z,1012.38
2018-02-19T04:27:23.044Z,1012.35
2018-02-19T04:28:22.998Z,1012.28
2018-02-19T04:29:22.951Z,1012.33
2018-02-19T04:30:22.920Z,1012.21
2018-02-19T04:31:22.875Z,1012.35
2018-02-19T04:32:22.844Z,1012.34
2018-02-19T04:33:22.783Z,1012.22
2018-02-19T04:34:22.748Z,1012.24
2018-02-19T04:35:22.700Z,1012.26
2018-02-19T04:36:22.677Z,1012.24
2018-02-19T04:37:22.620Z,1012.16
2018-02-19T04:38:22.574Z,1012.19
2018-02-19T04:39:22.531Z,1012.19
2018-02-19T04:40:22.493Z,1012.19
2018-02-19T04:41:22.445Z,1012.16
2018-02-19T04:42:22.416Z,1012.20
2018-02-19T04:43:22.362Z,1012.13
2018-02-19T04:44:22.331Z,1012.13
2018-02-19T04:45:23.161Z,1012.08
2018-02-19T04:46:22.242Z,1012.08
2018-02-19T04:47:22.194Z,1012.05
2018-02-19T04:48:22.194Z,1012.09
2018-02-19T04:49:22.114Z,1012.13
2018-02-19T04:50:22.089Z,1012.09
2018-02-19T04:51:22.029Z,1012.13
2018-02-19T04:52:21.981Z,1012.07
2018-02-19T04:53:21.952Z,1012.10
2018-02-19T04:54:21.902Z,1012.09
2018-02-19T04:55:21.861Z,1012.08
2018-02-19T04:56:21.815Z,1011.98
2018-02-19T04:57:21.811Z,1012.06
2018-02-19T04:58:21.763Z,1012.02
2018-02-19T04:59:21.695Z,1012.06
2018-02-19T05:00:21.680Z,1011.88
2018-02-19T05:01:21.608Z,1012.07
2018-02-19T05:02:21.612Z,1012.08
2018-02-19T05:03:21.521Z,1012.09
2018-02-19T05:04:21.478Z,1012.06
2018-02-19T05:05:21.434Z,1012.09
2018-02-19T05:06:21.397Z,1012.03
2018-02-19T05:07:21.352Z,1012.03
2018-02-19T05:08:21.311Z,1012.10
2018-02-19T05:09:21.266Z,1011.96
2018-02-19T05:10:21.227Z,1011.92
2018-02-19T05:11:21.195Z,1011.90
2018-02-19T05:12:21.177Z,1011.87
2018-02-19T05:13:21.121Z,1011.92
2018-02-19T05:14:21.060Z,1011.88
2018-02-19T05:15:21.022Z,1011.83
2018-02-19T05:16:21.018Z,1011.84
2018-02-19T05:17:20.936Z,1011.84
2018-02-19T05:18:20.902Z,1011.76
2018-02-19T05:19:20.844Z,1011.87
2018-02-19T05:20:20.802Z,1011.83
2018-02-19T05:21:20.761Z,1011.83
2018-02-19T05:22:20.720Z,1011.86
2018-02-19T05:23:20.690Z,1011.80
2018-02-19T05:24:22.393Z,1011.83
2018-02-19T05:25:20.618Z,1011.81
2018-02-19T05:26:20.551Z,1011.88
2018-02-19T05:27:20.506Z,1011.88
2018-02-19T05:28:20.464Z,1011.86
2018-02-19T05:29:20.441Z,1011.85
2018-02-19T05:30:20.393Z,1011.87
2018-02-19T05:31:20.381Z,1011.89
2018-02-19T05:32:20.296Z,1011.83
2018-02-19T05:33:20.255Z,1011.88
2018-02-19T05:34:20.234Z,1011.95
2018-02-19T05:35:20.178Z,1011.90
2018-02-19T05:36:20.127Z,1011.95
2018-02-19T05:37:20.090Z,1011.90
2018-02-19T05:38:20.077Z,1011.90
2018-02-19T05:39:20.001Z,1011.93
2018-02-19T05:40:19.957Z,1012.00
2018-02-19T05:41:19.941Z,1011.99
2018-02-19T05:42:19.885Z,1011.97
2018-02-19T05:43:19.850Z,1012.01
2018-02-19T05:44:19.793Z,1012.05
2018-02-19T05:45:19.750Z,1012.06
2018-02-19T05:46:19.709Z,1012.08
2018-02-19T05:47:19.667Z,1011.97
2018-02-19T05:48:19.630Z,1011.99
2018-02-19T05:49:19.581Z,1011.95
2018-02-19T05:50:19.564Z,1011.95
2018-02-19T05:51:19.502Z,1011.96
2018-02-19T05:52:19.461Z,1012.01
2018-02-19T05:53:19.416Z,1012.00
2018-02-19T05:54:19.394Z,1012.04
2018-02-19T05:55:19.330Z,1012.06
2018-02-19T05:56:19.302Z,1011.95
2018-02-19T05:57:19.265Z,1012.02
2018-02-19T05:58:19.207Z,1012.01
2018-02-19T05:59:19.186Z,1011.97
2018-02-19T06:00:19.124Z,1011.94
2018-02-19T06:01:19.075Z,1012.03
2018-02-19T06:02:19.036Z,1011.94
2018-02-19T06:03:18.990Z,1011.92
2018-02-19T06:04:18.949Z,1011.83
2018-02-19T06:05:18.909Z,1011.86
2018-02-19T06:06:18.865Z,1011.84
2018-02-19T06:07:18.822Z,1011.91
2018-02-19T06:08:18.783Z,1011.90
2018-02-19T06:09:18.738Z,1011.90
2018-02-19T06:10:18.720Z,1011.91
2018-02-19T06:11:18.654Z,1011.87
2018-02-19T06:12:18.611Z,1011.93
2018-02-19T06:13:18.572Z,1011.88
2018-02-19T06:14:18.532Z,1011.95
2018-02-19T06:15:18.485Z,1011.85
2018-02-19T06:16:18.441Z,1011.94
2018-02-19T06:17:18.401Z,1011.93
2018-02-19T06:18:18.360Z,1011.94
2018-02-19T06:19:18.319Z,1011.98
2018-02-19T06:20:18.276Z,1012.00
2018-02-19T06:21:18.233Z,1011.96
2018-02-19T06:22:18.218Z,1011.97
2018-02-19T06:23:18.812Z,1011.97
2018-02-19T06:24:18.106Z,1012.00
2018-02-19T06:25:18.065Z,1011.99
2018-02-19T06:26:18.024Z,1011.97
2018-02-19T06:27:17.985Z,1012.07
2018-02-19T06:28:17.937Z,1012.00
2018-02-19T06:29:17.898Z,1012.06
2018-02-19T06:30:17.852Z,1012.04
2018-02-19T06:31:17.815Z,1011.96
2018-02-19T06:32:17.770Z,1012.00
2018-02-19T06:33:17.738Z,1011.96
2018-02-19T06:34:17.689Z,1011.90
2018-02-19T06:35:17.643Z,1012.05
2018-02-19T06:36:17.601Z,1011.98
2018-02-19T06:37:17.563Z,1012.08
2018-02-19T06:38:17.516Z,1012.03
2018-02-19T06:39:17.474Z,1012.09
2018-02-19T06:40:17.432Z,1012.03
2018-02-19T06:41:17.389Z,1012.04
2018-02-19T06:42:17.359Z,1012.06
2018-02-19T06:43:17.307Z,1012.08
2018-02-19T06:44:17.262Z,1012.05
2018-02-19T06:45:17.243Z,1012.06
2018-02-19T06:46:17.180Z,1012.06
2018-02-19T06:47:17.141Z,1012.04
2018-02-19T06:48:17.094Z,1012.07
2018-02-19T06:49:17.099Z,1012.03
2018-02-19T06:50:17.012Z,1011.97
2018-02-19T06:51:16.970Z,1012.06
2018-02-19T06:52:16.935Z,1012.07
2018-02-19T06:53:16.887Z,1011.98
2018-02-19T06:54:16.844Z,1012.02
2018-02-19T06:55:16.801Z,1011.98
2018-02-19T06:56:16.758Z,1011.97
2018-02-19T06:57:16.722Z,1011.97
2018-02-19T06:58:16.706Z,1011.98
2018-02-19T06:59:16.634Z,1011.98
2018-02-19T07:00:16.592Z,1012.00
2018-02-19T07:01:16.548Z,1011.98
2018-02-19T07:02:16.509Z,1011.93
2018-02-19T07:03:16.467Z,1011.94
2018-02-19T07:04:16.421Z,1011.94
2018-02-19T07:05:16.389Z,1011.98
2018-02-19T07:06:16.338Z,1011.98
2018-02-19T07:07:16.300Z,1011.93
2018-02-19T07:08:16.254Z,1012.00
2018-02-19T07:09:16.220Z,1011.97
2018-02-19T07:10:16.172Z,1011.99
2018-02-19T07:11:16.130Z,1011.94
2018-02-19T07:12:16.085Z,1011.98
2018-02-19T07:13:16.046Z,1012.02
2018-02-19T07:14:16.003Z,1011.86
2018-02-19T07:15:15.963Z,1011.90
2018-02-19T07:16:15.920Z,1011.90
2018-02-19T07:17:15.885Z,1011.93
2018-02-19T07:18:15.835Z,1011.89
2018-02-19T07:19:15.798Z,1011.88
2018-02-19T07:20:15.755Z,1011.90
2018-02-19T07:21:15.710Z,1011.80
2018-02-19T07:22:15.671Z,1011.82
2018-02-19T07:23:15.637Z,1011.75
2018-02-19T07:24:15.588Z,1011.82
2018-02-19T07:25:15.542Z,1011.82
2018-02-19T07:26:15.503Z,1011.86
2018-02-19T07:27:15.465Z,1011.76
2018-02-19T07:28:15.420Z,1011.84
2018-02-19T07:29:15.373Z,1011.77
2018-02-19T07:30:15.334Z,1011.83
2018-02-19T07:31:15.293Z,1011.86
2018-02-19T07:32:15.249Z,1011.80
2018-02-19T07:33:15.211Z,1011.79
2018-02-19T07:34:15.166Z,1011.89
2018-02-19T07:35:15.266Z,1011.86
2018-02-19T07:36:15.086Z,1012.01
2018-02-19T07:37:15.047Z,1011.97
2018-02-19T07:38:15.002Z,1011.96
2018-02-19T07:39:14.958Z,1011.95
2018-02-19T07:40:14.916Z,1011.89
2018-02-19T07:41:14.876Z,1011.96
2018-02-19T07:42:14.833Z,1011.91
2018-02-19T07:43:14.792Z,1011.90
2018-02-19T07:44:14.810Z,1011.89
2018-02-19T07:45:14.710Z,1011.93
2018-02-19T07:46:14.668Z,1011.85
2018-02-19T07:47:14.626Z,1011.85
2018-02-19T07:48:14.588Z,1011.88
2018-02-19T07:49:14.543Z,1011.83
2018-02-19T07:50:14.539Z,1011.89
2018-02-19T07:51:14.458Z,1011.82
2018-02-19T07:52:14.424Z,1011.90
2018-02-19T07:53:14.374Z,1011.74
2018-02-19T07:54:14.347Z,1011.82
2018-02-19T07:55:14.293Z,1011.81
2018-02-19T07:56:14.279Z,1011.78
2018-02-19T07:57:14.212Z,1011.69
2018-02-19T07:58:14.168Z,1011.70
2018-02-19T07:59:14.129Z,1011.68
2018-02-19T08:00:14.085Z,1011.68
2018-02-19T08:01:14.048Z,1011.72
2018-02-19T08:02:14.006Z,1011.76
2018-02-19T08:03:13.963Z,1011.76
2018-02-19T08:04:13.921Z,1011.85
2018-02-19T08:05:13.881Z,1011.84
2018-02-19T08:06:13.835Z,1011.89
2018-02-19T08:07:13.838Z,1011.83
2018-02-19T08:08:13.753Z,1011.81
2018-02-19T08:09:13.716Z,1011.78
2018-02-19T08:10:13.673Z,1011.69
2018-02-19T08:11:13.639Z,1011.77
2018-02-19T08:12:13.587Z,1011.70
2018-02-19T08:13:13.546Z,1011.70
2018-02-19T08:14:13.505Z,1011.71
2018-02-19T08:15:13.468Z,1011.72
2018-02-19T08:16:13.429Z,1011.67
2018-02-19T08:17:13.384Z,1011.68
2018-02-19T08:18:13.347Z,1011.64
2018-02-19T08:19:13.302Z,1011.63
2018-02-19T08:20:13.258Z,1011.64
2018-02-19T08:21:13.217Z,1011.60
2018-02-19T08:22:13.176Z,1011.60
2018-02-19T08:23:13.135Z,1011.61
2018-02-19T08:24:13.100Z,1011.65
2018-02-19T08:25:13.056Z,1011.66
2018-02-19T08:26:13.016Z,1011.65
2018-02-19T08:27:12.972Z,1011.78
2018-02-19T08:28:12.929Z,1011.77
2018-02-19T08:29:12.888Z,1011.64
2018-02-19T08:30:12.856Z,1011.64
2018-02-19T08:31:12.807Z,1011.71
2018-02-19T08:32:12.767Z,1011.73
2018-02-19T08:33:12.726Z,1011.73
2018-02-19T08:34:12.688Z,1011.58
2018-02-19T08:35:12.645Z,1011.52
2018-02-19T08:36:12.605Z,1011.56
2018-02-19T08:37:12.568Z,1011.57
2018-02-19T08:38:12.523Z,1011.59
2018-02-19T08:39:12.521Z,1011.54
2018-02-19T08:40:12.448Z,1011.63
2018-02-19T08:41:12.404Z,1011.60
2018-02-19T08:42:12.363Z,1011.65
2018-02-19T08:43:12.326Z,1011.71
2018-02-19T08:44:12.288Z,1011.67
2018-02-19T08:45:12.253Z,1011.66
2018-02-19T08:46:12.204Z,1011.63
2018-02-19T08:47:12.165Z,1011.62
2018-02-19T08:48:12.121Z,1011.67
2018-02-19T08:49:12.082Z,1011.54
2018-02-19T08:50:12.050Z,1011.59
2018-02-19T08:51:12.004Z,1011.62
2018-02-19T08:52:11.962Z,1011.52
2018-02-19T08:53:11.954Z,1011.49
2018-02-19T08:54:11.883Z,1011.46
2018-02-19T08:55:11.846Z,1011.52
2018-02-19T08:56:11.822Z,1011.49
2018-02-19T08:57:11.764Z,1011.51
2018-02-19T08:58:11.724Z,1011.48
2018-02-19T08:59:11.685Z,1011.50
2018-02-19T09:00:11.646Z,1011.44
2018-02-19T09:01:11.603Z,1011.44
2018-02-19T09:02:11.566Z,1011.26
2018-02-19T09:03:11.527Z,1011.36
2018-02-19T09:04:11.484Z,1011.37
2018-02-19T09:05:11.445Z,1011.43
2018-02-19T09:06:11.405Z,1011.36
2018-02-19T09:07:11.379Z,1011.36
2018-02-19T09:08:11.327Z,1011.42
2018-02-19T09:09:11.290Z,1011.38
2018-02-19T09:10:11.245Z,1011.36
2018-02-19T09:11:11.208Z,1011.30
2018-02-19T09:12:11.167Z,1011.25
2018-02-19T09:13:11.131Z,1011.33
2018-02-19T09:14:11.088Z,1011.28
2018-02-19T09:15:11.061Z,1011.30
2018-02-19T09:16:11.009Z,1011.30
2018-02-19T09:17:10.969Z,1011.29
2018-02-19T09:18:10.933Z,1011.33
2018-02-19T09:19:10.893Z,1011.27
2018-02-19T09:20:10.857Z,1011.23
2018-02-19T09:21:10.812Z,1011.23
2018-02-19T09:22:10.778Z,1011.26
2018-02-19T09:23:10.731Z,1011.23
2018-02-19T09:24:10.690Z,1011.14
2018-02-19T09:25:10.651Z,1011.25
2018-02-19T09:26:10.615Z,1011.32
2018-02-19T09:27:10.574Z,1011.26
2018-02-19T09:28:10.533Z,1011.28
2018-02-19T09:29:10.492Z,1011.20
2018-02-19T09:30:10.455Z,1011.20
2018-02-19T09:31:10.416Z,1011.25
2018-02-19T09:32:10.378Z,1011.23
2018-02-19T09:33:10.341Z,1011.25
2018-02-19T09:34:10.296Z,1011.25
2018-02-19T09:35:10.256Z,1011.26
2018-02-19T09:36:10.256Z,1011.26
2018-02-19T09:37:10.175Z,1011.30
2018-02-19T09:38:10.140Z,1011.29
2018-02-19T09:39:10.112Z,1011.24
2018-02-19T09:40:10.056Z,1011.32
2018-02-19T09:41:10.015Z,1011.30
2018-02-19T09:42:09.985Z,1011.24
2018-02-19T09:43:09.938Z,1011.31
2018-02-19T09:44:09.898Z,1011.32
2018-02-19T09:45:09.861Z,1011.31
2018-02-19T09:46:09.819Z,1011.31
2018-02-19T09:47:09.789Z,1011.29
2018-02-19T09:48:09.742Z,1011.20
2018-02-19T09:49:09.703Z,1011.27
2018-02-19T09:50:09.660Z,1011.19
2018-02-19T09:51:09.623Z,1011.15
2018-02-19T09:52:09.580Z,1011.20
2018-02-19T09:53:09.541Z,1011.11
2018-02-19T09:54:09.500Z,1011.13
2018-02-19T09:55:09.461Z,1011.12
2018-02-19T09:56:09.423Z,1011.04
2018-02-19T09:57:09.383Z,1011.06
2018-02-19T09:58:09.343Z,1011.09
2018-02-19T09:59:09.307Z,1011.11
2018-02-19T10:00:09.273Z,1011.04
2018-02-19T10:01:09.225Z,1011.07
2018-02-19T10:02:09.184Z,1011.02
2018-02-19T10:03:09.146Z,1010.99
2018-02-19T10:04:09.104Z,1011.03
2018-02-19T10:05:09.064Z,1011.14
2018-02-19T10:06:09.023Z,1011.14
2018-02-19T10:07:08.984Z,1011.06
2018-02-19T10:08:08.944Z,1010.97
2018-02-19T10:09:08.906Z,1011.07
2018-02-19T10:10:08.868Z,1011.07
2018-02-19T10:11:08.828Z,1011.14
2018-02-19T10:12:08.842Z,1011.09
2018-02-19T10:13:08.746Z,1011.10
2018-02-19T10:14:08.709Z,1011.17
2018-02-19T10:15:08.669Z,1011.16
2018-02-19T10:16:08.625Z,1011.15
2018-02-19T10:17:08.586Z,1011.13
2018-02-19T10:18:08.548Z,1011.07
2018-02-19T10:19:08.521Z,1011.07
2018-02-19T10:20:08.478Z,1011.13
2018-02-19T10:21:08.435Z,1011.02
2018-02-19T10:22:08.394Z,1011.10
2018-02-19T10:23:08.352Z,1011.06
2018-02-19T10:24:08.311Z,1011.11
2018-02-19T10:25:08.271Z,1011.03
2018-02-19T10:26:08.232Z,1011.09
2018-02-19T10:27:08.193Z,1011.09
2018-02-19T10:28:08.157Z,1011.09
2018-02-19T10:29:08.113Z,1011.09
2018-02-19T10:30:08.076Z,1011.04
2018-02-19T10:31:08.048Z,1011.07
2018-02-19T10:32:07.996Z,1011.07
2018-02-19T10:33:07.956Z,1011.06
2018-02-19T10:34:07.922Z,1011.05
2018-02-19T10:35:07.881Z,1011.02
2018-02-19T10:36:07.844Z,1010.99
2018-02-19T10:37:07.803Z,1011.03
2018-02-19T10:38:07.765Z,1011.03
2018-02-19T10:39:07.726Z,1011.03
2018-02-19T10:40:07.689Z,1011.04
2018-02-19T10:41:07.650Z,1010.99
2018-02-19T10:42:07.611Z,1011.02
2018-02-19T10:43:07.620Z,1011.02
2018-02-19T10:44:07.529Z,1011.02
2018-02-19T10:45:07.490Z,1011.01
2018-02-19T10:46:07.453Z,1010.95
2018-02-19T10:47:07.415Z,1010.95
2018-02-19T10:48:07.377Z,1010.96
2018-02-19T10:49:07.341Z,1010.99
2018-02-19T10:50:07.298Z,1011.00
2018-02-19T10:51:07.259Z,1011.00
2018-02-19T10:52:07.231Z,1011.01
2018-02-19T10:53:07.188Z,1011.08
2018-02-19T10:54:07.148Z,1010.95
2018-02-19T10:55:07.106Z,1011.00
2018-02-19T10:56:07.068Z,1011.01
2018-02-19T10:57:07.031Z,1010.97
2018-02-19T10:58:06.992Z,1011.02
2018-02-19T10:59:06.956Z,1011.01
2018-02-19T11:00:06.914Z,1011.00
2018-02-19T11:01:06.881Z,1010.94
2018-02-19T11:02:06.847Z,1010.99
2018-02-19T11:03:06.806Z,1010.98
2018-02-19T11:04:06.762Z,1010.91
2018-02-19T11:05:06.729Z,1011.00
2018-02-19T11:06:06.710Z,1011.00
2018-02-19T11:07:06.653Z,1011.02
2018-02-19T11:08:06.613Z,1010.99
2018-02-19T11:09:06.578Z,1010.96
2018-02-19T11:10:06.550Z,1010.96
2018-02-19T11:11:06.500Z,1011.03
2018-02-19T11:12:06.465Z,1010.95
2018-02-19T11:13:06.425Z,1010.99
2018-02-19T11:14:06.389Z,1011.04
2018-02-19T11:15:06.352Z,1011.04
2018-02-19T11:16:06.311Z,1010.86
2018-02-19T11:17:06.275Z,1010.98
2018-02-19T11:18:06.237Z,1011.01
2018-02-19T11:19:06.208Z,1010.95
2018-02-19T11:20:06.162Z,1011.08
2018-02-19T11:21:06.126Z,1011.11
2018-02-19T11:22:06.088Z,1011.03
2018-02-19T11:23:06.051Z,1011.03
2018-02-19T11:24:06.021Z,1010.97
2018-02-19T11:25:05.978Z,1011.00
2018-02-19T11:26:05.943Z,1010.97
2018-02-19T11:27:05.905Z,1010.94
2018-02-19T11:28:05.862Z,1010.94
2018-02-19T11:29:05.840Z,1010.89
2018-02-19T11:30:05.793Z,1010.96
2018-02-19T11:31:05.755Z,1010.98
2018-02-19T11:32:05.715Z,1010.86
2018-02-19T11:33:05.680Z,1010.82
2018-02-19T11:34:05.644Z,1010.87
2018-02-19T11:35:05.624Z,1010.88
2018-02-19T11:36:05.569Z,1010.85
2018-02-19T11:37:05.530Z,1010.85
2018-02-19T11:38:05.490Z,1010.83
2018-02-19T11:39:05.458Z,1010.78
2018-02-19T11:40:05.417Z,1010.77
2018-02-19T11:41:05.387Z,1010.78
2018-02-19T11:42:05.343Z,1010.80
2018-02-19T11:43:05.308Z,1010.78
2018-02-19T11:44:05.269Z,1010.76
2018-02-19T11:45:05.234Z,1010.78
2018-02-19T11:46:05.237Z,1010.76
2018-02-19T11:47:05.161Z,1010.76
2018-02-19T11:48:05.125Z,1010.70
2018-02-19T11:49:05.083Z,1010.64
2018-02-19T11:50:05.047Z,1010.57
2018-02-19T11:51:05.013Z,1010.62
2018-02-19T11:52:04.976Z,1010.64
2018-02-19T11:53:04.944Z,1010.54
2018-02-19T11:54:04.900Z,1010.55
2018-02-19T11:55:04.866Z,1010.65
2018-02-19T11:56:04.867Z,1010.63
2018-02-19T11:57:04.791Z,1010.62
2018-02-19T11:58:04.753Z,1010.62
2018-02-19T11:59:04.728Z,1010.62
2018-02-19T12:00:04.682Z,1010.62
2018-02-19T12:01:04.699Z,1010.60
2018-02-19T12:02:04.609Z,1010.54
2018-02-19T12:03:04.570Z,1010.56
2018-02-19T12:04:04.534Z,1010.60
2018-02-19T12:05:04.507Z,1010.62